Flight Track Log - Related Links

Times and Time Zones

All times are in EDT time to prevent confusion due to time zone crossing. See the SWA3206 flight status page for this flight to view local times or setup timezone preferences in your user account.

Time Position Orientation Groundspeed Altitude Reporting Facility
EDT Latitude Longitude Course Direction KTS MPH feet Rate Location/Type
Mon 02:19:52 PM 41.7500 -87.8500 251° West 223 257 4,100  Level Chicago TRACON
Mon 02:20:28 PM 41.7417 -87.9053 259° West 227 261 4,000 1,052 Descending Chicago Center
Mon 02:21:29 PM 41.7428 -88.0031 271° West 252 290 5,800 927 Climbing Chicago Center
Mon 02:22:31 PM 41.7403 -88.0994 268° West 263 303 5,900 48 Climbing Chicago Center
Mon 02:23:33 PM 41.7392 -88.1953 269° West 262 302 5,900 1,645 Level Chicago Center
Mon 02:24:00 PM 41.8995 -88.4801 282° West  Level FlightAware Approximate
Mon 02:24:35 PM 41.7817 -88.2983 299° West 271 312 9,300  Level Chicago Center
Mon 02:25:37 PM 41.7853 -88.3958 273° West 265 305 12,400 2,371 Climbing Chicago Center
Mon 02:26:39 PM 41.7844 -88.5133 269° West 307 353 14,200 2,323 Climbing Chicago Center
Mon 02:27:41 PM 41.7772 -88.6414 266° West 338 389 17,200 2,758 Climbing Chicago Center
Mon 02:28:43 PM 41.7475 -88.7717 253° West 363 418 19,900 2,710 Climbing Chicago Center
Mon 02:29:45 PM 41.7122 -88.9325 254° West 376 433 22,800 2,468 Climbing Chicago Center
Mon 02:30:47 PM 41.6814 -89.0714 253° West 390 449 25,000 2,032 Climbing Chicago Center
Mon 02:31:49 PM 41.6503 -89.2136 254° West 400 460 27,000 1,694 Climbing Chicago Center
Mon 02:32:51 PM 41.6181 -89.3597 254° West 409 471 28,500 1,548 Climbing Chicago Center
Mon 02:33:53 PM 41.5836 -89.5106 253° West 423 487 30,200 1,984 Climbing Chicago Center
Mon 02:34:55 PM 41.5489 -89.6619 253° West 416 479 32,600 1,839 Climbing Chicago Center
Mon 02:35:57 PM 41.5169 -89.8061 254° West 409 471 34,000 677 Climbing Chicago Center
Mon 02:36:59 PM 41.4778 -89.9750 253° West 401 461 34,000 677 Level Chicago Center
Mon 02:38:01 PM 41.4450 -90.1142 253° West 397 457 35,400 1,355 Climbing Chicago Center
Mon 02:39:03 PM 41.4133 -90.2514 253° West 391 450 36,800 1,210 Climbing Chicago Center
Mon 02:40:05 PM 41.3822 -90.3858 253° West 384 442 37,900 581 Climbing Chicago Center
Mon 02:41:07 PM 41.3528 -90.5242 254° West 392 451 38,000 48 Climbing Chicago Center
Mon 02:42:09 PM 41.3225 -90.6972 257° West 404 465 38,000  Level Chicago Center
Mon 02:43:11 PM 41.2981 -90.8383 257° West 395 455 38,000  Level Chicago Center
Mon 02:44:13 PM 41.2736 -90.9797 257° West 394 453 38,000  Level Chicago Center
Mon 02:45:15 PM 41.2481 -91.1208 257° West 394 453 38,000  Level Chicago Center
Mon 02:46:17 PM 41.2228 -91.2614 257° West 393 452 38,000  Level Chicago Center
Mon 02:47:19 PM 41.1983 -91.3997 257° West 387 445 38,000  Level Chicago Center
Mon 02:48:21 PM 41.1681 -91.5650 256° West 385 443 38,000  Level Chicago Center
Mon 02:49:23 PM 41.1419 -91.7081 256° West 385 443 38,000  Level Chicago Center
Mon 02:50:25 PM 41.1169 -91.8431 256° West 382 440 38,000  Level Chicago Center
Mon 02:51:28 PM 41.0914 -91.9781 256° West 382 440 38,000  Level Chicago Center
Mon 02:52:30 PM 41.0653 -92.1156 256° West 386 444 38,000  Level Chicago Center
Mon 02:53:32 PM 41.0394 -92.2539 256° West 389 448 38,000  Level Chicago Center
Mon 02:54:34 PM 41.0075 -92.4203 256° West 391 450 38,000  Level Chicago Center
Mon 02:55:36 PM 40.9817 -92.5600 256° West 395 455 38,000  Level Chicago Center
Mon 02:56:38 PM 40.9542 -92.7017 256° West 400 460 38,000  Level Chicago Center
Mon 02:57:40 PM 40.9264 -92.8414 255° West 399 459 38,000  Level Chicago Center
Mon 02:58:15 PM 40.9106 -92.9272 256° West 401 461 38,000  Level Minneapolis Center
Mon 02:59:17 PM 40.8778 -93.0947 256° West 399 459 38,000  Level Minneapolis Center
Mon 03:00:18 PM 40.8503 -93.2342 255° West 396 456 38,000  Level Minneapolis Center
Mon 03:01:20 PM 40.8208 -93.3753 255° West 397 457 38,000  Level Minneapolis Center
Mon 03:02:21 PM 40.7947 -93.5117 256° West 397 457 38,000  Level Minneapolis Center
Mon 03:03:23 PM 40.7656 -93.6511 255° West 398 458 38,000  Level Minneapolis Center
Mon 03:04:24 PM 40.7375 -93.7908 255° West 400 460 38,000  Level Minneapolis Center
Mon 03:05:38 PM 40.6972 -93.9878 255° West 401 461 38,000  Level Minneapolis Center
Mon 03:06:40 PM 40.6667 -94.1286 254° West 403 464 38,000  Level Minneapolis Center
Mon 03:07:41 PM 40.6361 -94.2711 254° West 406 467 38,000  Level Minneapolis Center
Mon 03:08:43 PM 40.6061 -94.4125 254° West 406 467 38,000  Level Minneapolis Center
Mon 03:09:44 PM 40.5736 -94.5706 255° West 406 467 38,000  Level Minneapolis Center
Mon 03:10:46 PM 40.5439 -94.7139 255° West 406 467 38,000  Level Minneapolis Center
Mon 03:11:47 PM 40.5133 -94.8567 254° West 406 467 38,000  Level Minneapolis Center
Mon 03:12:49 PM 40.4817 -95.0025 254° West 411 473 38,000  Level Minneapolis Center
Mon 03:14:02 PM 40.4511 -95.1444 254° West 406 467 38,000  Level Minneapolis Center
Mon 03:15:04 PM 40.4133 -95.3169 254° West 407 468 38,000  Level Minneapolis Center
Mon 03:16:06 PM 40.3825 -95.4603 254° West 407 468 38,000  Level Minneapolis Center
Mon 03:17:07 PM 40.3442 -95.6322 254° West 408 470 38,000  Level Minneapolis Center
Mon 03:18:09 PM 40.3122 -95.7728 253° West 405 466 38,000  Level Minneapolis Center
Mon 03:19:10 PM 40.2811 -95.9150 254° West 404 465 38,000  Level Minneapolis Center
Mon 03:20:12 PM 40.2489 -96.0614 254° West 410 472 38,000  Level Minneapolis Center
Mon 03:21:13 PM 40.2158 -96.2050 253° West 412 474 38,000  Level Minneapolis Center
Mon 03:22:15 PM 40.1836 -96.3472 254° West 410 472 38,000  Level Minneapolis Center
Mon 03:23:16 PM 40.1500 -96.4897 253° West 410 472 38,000  Level Minneapolis Center
Mon 03:24:17 PM 40.1167 -96.6328 253° West 410 472 38,000  Level Minneapolis Center
Mon 03:25:19 PM 40.0839 -96.7742 253° West 408 470 38,000  Level Minneapolis Center
Mon 03:26:20 PM 40.0500 -96.9175 253° West 411 473 38,000  Level Minneapolis Center
Mon 03:27:22 PM 40.0111 -97.0881 253° West 409 471 38,000  Level Minneapolis Center
Mon 03:28:23 PM 39.9767 -97.2314 253° West 411 473 38,000  Level Minneapolis Center
Mon 03:29:25 PM 39.9461 -97.3564 252° West 412 474 38,000  Level Minneapolis Center
Mon 03:30:26 PM 39.9044 -97.5292 253° West 414 476 38,000  Level Minneapolis Center
Mon 03:31:28 PM 39.8697 -97.6733 253° West 415 478 38,000  Level Minneapolis Center
Mon 03:32:30 PM 39.8344 -97.8161 252° West 415 478 38,000  Level Minneapolis Center
Mon 03:33:31 PM 39.7997 -97.9592 253° West 414 476 38,000  Level Minneapolis Center
Mon 03:34:33 PM 39.7639 -98.1019 252° West 415 478 38,000  Level Minneapolis Center
Mon 03:35:34 PM 39.7286 -98.2453 252° West 415 478 38,000  Level Minneapolis Center
Mon 03:36:36 PM 39.7006 -98.3603 252° West 415 478 38,000  Level Minneapolis Center
Mon 03:37:38 PM 39.6569 -98.5331 252° West 418 481 38,000  Level Minneapolis Center
Mon 03:38:39 PM 39.6206 -98.6758 252° West 417 480 38,000  Level Minneapolis Center
Mon 03:39:06 PM 39.5986 -98.7625 252° West 417 480 38,000  Level Denver Center
Mon 03:40:08 PM 39.5628 -98.9042 252° West 416 479 38,000  Level Denver Center
Mon 03:41:09 PM 39.5269 -99.0456 252° West 414 476 38,000  Level Denver Center
Mon 03:42:11 PM 39.4892 -99.1883 251° West 417 480 38,000  Level Denver Center
Mon 03:43:13 PM 39.4486 -99.3456 252° West 417 480 38,000  Level Denver Center
Mon 03:44:15 PM 39.4133 -99.4819 252° West 417 480 38,000  Level Denver Center
Mon 03:45:16 PM 39.3758 -99.6192 251° West 422 486 38,000  Level Denver Center
Mon 03:46:18 PM 39.3342 -99.7806 252° West 422 486 38,000  Level Denver Center
Mon 03:47:20 PM 39.2972 -99.9194 251° West 426 490 38,000  Level Denver Center
Mon 03:48:22 PM 39.2539 -100.0814 251° West 429 494 38,000  Level Denver Center
Mon 03:49:23 PM 39.2158 -100.2208 251° West 430 495 38,000  Level Denver Center
Mon 03:50:25 PM 39.1719 -100.3817 251° West 429 494 38,000  Level Denver Center
Mon 03:51:27 PM 39.1342 -100.5192 251° West 426 490 38,000  Level Denver Center
Mon 03:52:29 PM 39.0969 -100.6583 251° West 428 493 38,000  Level Denver Center
Mon 03:53:30 PM 39.0522 -100.8186 250° West 426 490 38,000  Level Denver Center
Mon 03:54:32 PM 39.0103 -100.9692 250° West 427 491 38,000  Level Denver Center
Mon 03:55:34 PM 38.9731 -101.1097 251° West 432 497 38,000  Level Denver Center
Mon 03:56:36 PM 38.9275 -101.2667 250° West 426 490 38,000  Level Denver Center
Mon 03:57:37 PM 38.8906 -101.4000 250° West 419 482 38,000  Level Denver Center
Mon 03:58:39 PM 38.8578 -101.5094 249° West 415 478 38,000  Level Denver Center
Mon 03:59:41 PM 38.8072 -101.6881 250° West 419 482 38,000  Level Denver Center
Mon 04:00:42 PM 38.7692 -101.8208 250° West 417 480 38,000  Level Denver Center
Mon 04:01:44 PM 38.7253 -101.9775 250° West 420 483 38,000  Level Denver Center
Mon 04:02:46 PM 38.6861 -102.1103 249° West 417 480 38,000  Level Denver Center
Mon 04:03:48 PM 38.6406 -102.2667 250° West 420 483 38,000  Level Denver Center
Mon 04:04:49 PM 38.6011 -102.4011 249° West 422 486 38,000  Level Denver Center
Mon 04:05:51 PM 38.5553 -102.5567 249° West 420 483 38,000  Level Denver Center
Mon 04:06:53 PM 38.5158 -102.6906 249° West 421 484 38,000  Level Denver Center
Mon 04:07:55 PM 38.4692 -102.8472 249° West 423 487 38,000  Level Denver Center
Mon 04:08:56 PM 38.4283 -102.9803 249° West 423 487 38,000  Level Denver Center
Mon 04:09:58 PM 38.3814 -103.1361 249° West 421 484 38,000  Level Denver Center
Mon 04:11:00 PM 38.3431 -103.2694 250° West 421 484 38,000  Level Denver Center
Mon 04:12:02 PM 38.3000 -103.4089 249° West 422 486 38,000  Level Denver Center
Mon 04:13:03 PM 38.2594 -103.5414 249° West 422 486 38,000  Level Denver Center
Mon 04:14:05 PM 38.2117 -103.6983 249° West 428 493 38,000  Level Denver Center
Mon 04:15:07 PM 38.1697 -103.8322 248° West 427 491 38,000  Level Denver Center
Mon 04:16:21 PM 38.1219 -103.9881 249° West 426 490 38,000  Level Denver Center
Mon 04:17:23 PM 38.0664 -104.1656 248° West 425 489 38,000  Level Denver Center
Mon 04:18:25 PM 38.0247 -104.2992 248° West 429 494 38,000  Level Denver Center
Mon 04:19:26 PM 37.9761 -104.4533 248° West 425 489 38,000  Level Denver Center
Mon 04:20:28 PM 37.9414 -104.5636 248° West 424 488 38,000  Level Denver Center
Mon 04:21:30 PM 37.8853 -104.7403 248° West 426 490 38,000  Level Denver Center
Mon 04:22:32 PM 37.8417 -104.8747 248° West 430 495 38,000  Level Denver Center
Mon 04:23:33 PM 37.7928 -105.0289 248° West 426 490 38,000  Level Denver Center
Mon 04:24:35 PM 37.7497 -105.1614 248° West 426 490 38,000  Level Denver Center
Mon 04:25:37 PM 37.7067 -105.2933 248° West 424 488 38,000  Level Denver Center
Mon 04:26:39 PM 37.6553 -105.4472 247° West 427 491 38,000  Level Denver Center
Mon 04:27:40 PM 37.6122 -105.5803 248° West 430 495 38,000  Level Denver Center
Mon 04:28:42 PM 37.5608 -105.7336 247° West 426 490 38,000  Level Denver Center
Mon 04:29:44 PM 37.5192 -105.8603 248° West 426 490 38,000  Level Denver Center
Mon 04:30:46 PM 37.4681 -106.0136 247° West 425 489 38,000  Level Denver Center
Mon 04:31:47 PM 37.4253 -106.1433 247° West 421 484 38,000  Level Denver Center
Mon 04:32:49 PM 37.3739 -106.2967 247° West 425 489 38,000  Level Denver Center
Mon 04:33:51 PM 37.3292 -106.4278 247° West 427 491 38,000  Level Denver Center
Mon 04:34:53 PM 37.2767 -106.5806 247° West 427 491 38,000  Level Denver Center
Mon 04:35:55 PM 37.2333 -106.7136 248° West 430 495 38,000  Level Denver Center
Mon 04:36:56 PM 37.1872 -106.8444 246° West 429 494 38,000  Level Denver Center
Mon 04:37:58 PM 37.1336 -107.0006 247° West 436 502 38,000  Level Denver Center
Mon 04:39:00 PM 37.0883 -107.1331 247° West 434 499 38,000  Level Denver Center
Mon 04:40:02 PM 37.0347 -107.2872 246° West 433 498 38,000  Level Denver Center
Mon 04:41:15 PM 36.9883 -107.4194 246° West 433 498 38,000  Level Denver Center
Mon 04:42:17 PM 36.9350 -107.5722 246° West 430 495 38,000  Level Denver Center
Mon 04:43:19 PM 36.8800 -107.7267 246° West 434 499 38,000  Level Denver Center
Mon 04:44:21 PM 36.8272 -107.8797 247° West 429 494 38,000  Level Denver Center
Mon 04:45:23 PM 36.7800 -108.0103 246° West 429 494 38,000  Level Denver Center
Mon 04:46:37 PM 36.7231 -108.1614 245° Southwest 435 501 38,000  Level Denver Center
Mon 04:47:39 PM 36.6683 -108.2875 242° Southwest 434 499 38,000  Level Denver Center
Mon 04:48:41 PM 36.5958 -108.4572 242° Southwest 435 501 38,000  Level Denver Center
Mon 04:49:42 PM 36.5406 -108.5847 242° Southwest 437 503 38,000  Level Denver Center
Mon 04:50:44 PM 36.4767 -108.7347 242° Southwest 441 507 38,000  Level Denver Center
Mon 04:51:46 PM 36.4214 -108.8631 242° Southwest 442 509 38,000  Level Denver Center
Mon 04:52:48 PM 36.3561 -109.0114 241° Southwest 442 509 38,000  Level Denver Center
Mon 04:53:50 PM 36.3011 -109.1389 242° Southwest 442 509 38,000  Level Denver Center
Mon 04:54:51 PM 36.2353 -109.2872 241° Southwest 443 510 38,000  Level Denver Center
Mon 04:55:53 PM 36.1789 -109.4133 241° Southwest 441 507 38,000  Level Denver Center
Mon 04:56:55 PM 36.1144 -109.5608 242° Southwest 439 505 38,000  Level Denver Center
Mon 04:57:57 PM 36.0575 -109.6872 241° Southwest 439 505 38,000  Level Denver Center
Mon 04:58:58 PM 35.9928 -109.8342 241° Southwest 438 504 38,000  Level Denver Center
Mon 05:00:00 PM 35.9361 -109.9597 241° Southwest 437 503 38,000  Level Denver Center
Mon 05:01:14 PM 35.8703 -110.1064 241° Southwest 437 503 38,000  Level Denver Center
Mon 05:02:16 PM 35.8028 -110.2508 240° Southwest 437 503 38,000  Level Denver Center
Mon 05:03:18 PM 35.7361 -110.3997 241° Southwest 442 509 38,000  Level Denver Center
Mon 05:04:19 PM 35.6756 -110.5236 239° Southwest 442 509 38,000  Level Albuquerque Center
Mon 05:05:21 PM 35.6089 -110.6714 241° Southwest 442 509 38,000  Level Albuquerque Center
Mon 05:06:23 PM 35.5492 -110.7961 240° Southwest 443 510 38,000  Level Albuquerque Center
Mon 05:07:25 PM 35.4825 -110.9442 241° Southwest 443 510 38,000  Level Albuquerque Center
Mon 05:08:27 PM 35.4256 -111.0697 241° Southwest 442 509 38,000  Level Albuquerque Center
Mon 05:09:29 PM 35.3669 -111.1936 240° Southwest 439 505 38,000  Level Albuquerque Center
Mon 05:10:31 PM 35.3047 -111.3356 242° Southwest 450 518 38,000  Level Albuquerque Center
Mon 05:11:33 PM 35.2433 -111.4669 240° Southwest 448 516 38,000  Level Albuquerque Center
Mon 05:12:35 PM 35.1836 -111.5953 240° Southwest 441 507 38,000  Level Albuquerque Center
Mon 05:13:37 PM 35.1075 -111.7469 239° Southwest 438 504 38,000  Level Albuquerque Center
Mon 05:14:39 PM 35.0458 -111.8589 236° Southwest 441 507 38,000  Level Albuquerque Center
Mon 05:15:41 PM 34.9778 -111.9814 236° Southwest 440 506 38,000  Level Albuquerque Center
Mon 05:16:43 PM 34.8961 -112.1308 236° Southwest 440 506 38,000  Level Albuquerque Center
Mon 05:17:45 PM 34.8272 -112.2544 236° Southwest 442 509 38,000  Level Albuquerque Center
Mon 05:18:47 PM 34.7597 -112.3783 236° Southwest 440 506 38,000  Level Albuquerque Center
Mon 05:19:49 PM 34.6975 -112.5058 239° Southwest 446 513 38,000 -290 Level Albuquerque Center
Mon 05:20:51 PM 34.6589 -112.6444 251° West 439 505 37,400 -774 Descending Albuquerque Center
Mon 05:21:53 PM 34.6233 -112.7836 253° West 433 498 36,400 -677 Descending Albuquerque Center
Mon 05:22:55 PM 34.5842 -112.9250 251° West 438 504 36,000 -194 Descending Albuquerque Center
Mon 05:23:57 PM 34.5397 -113.0950 252° West 441 507 36,000  Level Albuquerque Center
Mon 05:24:58 PM 34.5011 -113.2367 252° West 442 509 36,000 -195 Level Albuquerque Center
Mon 05:26:00 PM 34.4636 -113.3761 252° West 440 506 35,600 -629 Descending Albuquerque Center
Mon 05:27:02 PM 34.4244 -113.5178 252° West 442 509 34,700 -774 Descending Albuquerque Center
Mon 05:28:04 PM 34.3853 -113.6631 252° West 439 505 34,000 -339 Descending Albuquerque Center
Mon 05:29:06 PM 34.3464 -113.8050 252° West 441 507 34,000  Level Albuquerque Center
Mon 05:30:08 PM 34.3089 -113.9442 252° West 439 505 34,000  Level Albuquerque Center
Mon 05:31:10 PM 34.2625 -114.1117 252° West 437 503 34,000  Level Albuquerque Center
Mon 05:32:12 PM 34.2233 -114.2522 251° West 438 504 34,000 -242 Level Albuquerque Center
Mon 05:33:14 PM 34.1822 -114.3972 251° West 444 511 33,500 -726 Descending Albuquerque Center
Mon 05:34:16 PM 34.1414 -114.5417 251° West 449 517 32,500 -1,083 Descending Albuquerque Center
Mon 05:35:27 PM 34.0886 -114.7178 250° West 444 511 31,100 -1,083 Descending Los Angeles Center
Mon 05:36:29 PM 34.0303 -114.8464 241° Southwest 438 504 30,100 -532 Descending Los Angeles Center
Mon 05:37:31 PM 33.9736 -114.9725 242° Southwest 430 495 30,000 -48 Descending Los Angeles Center
Mon 05:38:33 PM 33.9175 -115.0997 242° Southwest 430 495 30,000  Level Los Angeles Center
Mon 05:39:35 PM 33.8611 -115.2261 242° Southwest 431 496 30,000  Level Los Angeles Center
Mon 05:40:37 PM 33.7936 -115.3789 242° Southwest 432 497 30,000  Level Los Angeles Center
Mon 05:41:39 PM 33.7358 -115.5072 242° Southwest 436 502 30,000  Level Los Angeles Center
Mon 05:42:42 PM 33.6792 -115.6344 242° Southwest 434 499 30,000 -1,152 Level Los Angeles Center
Mon 05:43:44 PM 33.6211 -115.7603 241° Southwest 434 499 27,600 -2,323 Descending Los Angeles Center
Mon 05:44:46 PM 33.5544 -115.8794 236° Southwest 432 497 25,200 -1,935 Descending Los Angeles Center
Mon 05:45:48 PM 33.4600 -115.9997 227° Southwest 418 481 23,600 -1,258 Descending Los Angeles Center
Mon 05:46:50 PM 33.3731 -116.0853 219° Southwest 410 472 22,600 -1,452 Descending Los Angeles Center
Mon 05:47:52 PM 33.2867 -116.1697 219° Southwest 402 463 20,600 -1,839 Descending Los Angeles Center
Mon 05:48:54 PM 33.2039 -116.2503 219° Southwest 390 449 18,800 -1,887 Descending Los Angeles Center
Mon 05:49:56 PM 33.1244 -116.3283 219° Southwest 375 432 16,700 -2,274 Descending Los Angeles Center
Mon 05:50:58 PM 33.0419 -116.4089 219° Southwest 372 428 14,100 -1,968 Descending Los Angeles Center
Mon 05:52:01 PM 32.9583 -116.4711 212° Southwest 350 403 12,600 -1,680 Descending Los Angeles Center
Mon 05:53:03 PM 32.8714 -116.5353 212° Southwest 338 389 10,600 -1,694 Descending Los Angeles Center
Mon 05:54:05 PM 32.8286 -116.6206 239° Southwest 309 356 9,100 -968 Descending Los Angeles Center
Mon 05:55:07 PM 32.7892 -116.6986 239° Southwest 287 330 8,600 -1,210 Descending Los Angeles Center
Mon 05:56:09 PM 32.7414 -116.7944 239° Southwest 282 325 6,600 -1,742 Descending Los Angeles Center
Mon 05:57:11 PM 32.7022 -116.8744 240° Southwest 282 325 5,000 -1,065 Descending Los Angeles Center
Mon 05:57:56 PM 32.6833 -116.9333 249° West 246 283 4,700 -400 Descending Southern California TRACON
Mon 05:58:56 PM 32.6833 -117.0000 270° West 185 213 4,300 -800 Descending Southern California TRACON
Mon 05:59:56 PM 32.7000 -117.0500 292° West 153 176 3,100 -1,240 Descending Southern California TRACON
Mon 06:00:57 PM 32.7167 -117.1000 292° West 156 180 1,800 -1,148 Descending Southern California TRACON
Mon 06:01:51 PM 32.7167 -117.1333 270° West 136 157 900 -918 Descending Southern California TRACON
Mon 06:02:22 PM 32.7253 -117.1553 295° West 143 165 500 -323 Descending Los Angeles Center
Mon 06:03:24 PM 32.7350 -117.1947 286° West 138 159 400 -97 Descending Los Angeles Center
Mon 06:05:00 PM 32.7333 -117.1833 North  Level FlightAware Approximate

Login

Don't have an account? Register now (free) for customized features, flight alerts, and more!